createdAt,value
2022-10-11T00:00:14.710Z,100746.80
2022-10-11T00:03:04.145Z,100746.78
2022-10-11T00:05:33.061Z,100752.83
2022-10-11T00:08:01.564Z,100746.75
2022-10-11T00:10:30.202Z,100742.39
2022-10-11T00:12:59.397Z,100744.99
2022-10-11T00:15:28.136Z,100749.30
2022-10-11T00:17:59.375Z,100743.23
2022-10-11T00:20:30.959Z,100746.67
2022-10-11T00:22:59.624Z,100744.08
2022-10-11T00:25:28.153Z,100744.94
2022-10-11T00:27:56.583Z,100744.05
2022-10-11T00:30:25.930Z,100747.51
2022-10-11T00:32:54.936Z,100745.77
2022-10-11T00:35:26.102Z,100744.03
2022-10-11T00:37:57.192Z,100737.95
2022-10-11T00:40:27.131Z,100732.77
2022-10-11T00:42:55.593Z,100727.55
2022-10-11T00:46:02.714Z,100731.89
2022-10-11T00:48:39.249Z,100730.97
2022-10-11T00:51:13.983Z,100724.04
2022-10-11T00:53:43.297Z,100735.28
2022-10-11T00:56:20.523Z,100732.66
2022-10-11T00:58:49.584Z,100723.98
2022-10-11T01:01:18.398Z,100723.98
2022-10-11T01:03:47.140Z,100730.88
2022-10-11T01:06:15.679Z,100709.23
2022-10-11T01:08:44.646Z,100715.28
2022-10-11T01:50:21.925Z,100693.62
2022-10-11T01:52:51.272Z,100699.66
2022-10-11T01:55:30.718Z,100690.14
2022-10-11T01:58:13.143Z,100695.30
2022-10-11T02:00:50.577Z,100700.48
2022-10-11T02:03:28.851Z,100695.30
2022-10-11T02:06:03.349Z,100692.67
2022-10-11T02:08:38.943Z,100696.15
2022-10-11T02:11:11.450Z,100693.56
2022-10-11T02:13:42.137Z,100692.70
2022-10-11T02:16:14.369Z,100684.06
2022-10-11T02:18:49.119Z,100680.62
2022-10-11T02:21:22.018Z,100674.60
2022-10-11T02:23:53.850Z,100679.79
2022-10-11T02:26:27.145Z,100680.64
2022-10-11T02:29:00.567Z,100685.83
2022-10-11T02:31:38.264Z,100682.36
2022-10-11T02:34:11.585Z,100678.05
2022-10-11T02:36:47.821Z,100681.53
2022-10-11T02:39:23.584Z,100678.08
2022-10-11T02:42:01.822Z,100691.05
2022-10-11T02:44:35.279Z,100689.34
2022-10-11T02:47:06.059Z,100694.53
2022-10-11T02:49:35.686Z,100690.22
2022-10-11T02:52:06.139Z,100681.58
2022-10-11T02:54:35.147Z,100684.20
2022-10-11T02:57:03.666Z,100685.06
2022-10-11T02:59:34.801Z,100687.66
2022-10-11T03:02:03.243Z,100685.06
2022-10-11T03:04:32.090Z,100697.17
2022-10-11T03:07:00.864Z,100698.06
2022-10-11T03:09:29.334Z,100701.52
2022-10-11T03:11:57.814Z,100699.80
2022-10-11T03:14:28.752Z,100699.80
2022-10-11T03:17:12.293Z,100696.34
2022-10-11T03:19:48.550Z,100704.14
2022-10-11T03:22:19.815Z,100698.09
2022-10-11T03:24:48.246Z,100697.23
2022-10-11T03:27:16.656Z,100705.88
2022-10-11T03:29:45.228Z,100702.42
2022-10-11T03:32:13.651Z,100700.68
2022-10-11T03:34:42.088Z,100704.16
2022-10-11T03:37:11.106Z,100707.64
2022-10-11T03:39:39.576Z,100717.17
2022-10-11T03:42:07.951Z,100712.83
2022-10-11T03:44:36.394Z,100722.36
2022-10-11T03:47:10.165Z,100722.36
2022-10-11T03:49:43.252Z,100721.50
2022-10-11T03:52:12.626Z,100709.41
2022-10-11T03:54:41.396Z,100718.05
2022-10-11T03:57:12.352Z,100723.27
2022-10-11T03:59:40.951Z,100719.84
2022-10-11T04:02:09.602Z,100720.69
2022-10-11T04:04:38.144Z,100725.91
2022-10-11T04:07:06.895Z,100726.77
2022-10-11T04:09:35.588Z,100727.65
2022-10-11T04:12:04.516Z,100725.05
2022-10-11T04:14:33.376Z,100726.79
2022-10-11T04:17:02.152Z,100720.74
2022-10-11T04:19:33.410Z,100720.72
2022-10-11T04:22:02.226Z,100720.69
2022-10-11T04:24:31.697Z,100725.89
2022-10-11T04:27:00.486Z,100722.44
2022-10-11T04:29:32.551Z,100725.03
2022-10-11T04:32:01.490Z,100735.41
2022-10-11T04:34:30.856Z,100737.95
2022-10-11T04:36:59.477Z,100734.48
2022-10-11T04:39:28.550Z,100748.28
2022-10-11T04:41:57.222Z,100747.40
2022-10-11T04:44:26.769Z,100757.78
2022-10-11T04:46:55.709Z,100761.23
2022-10-11T04:49:27.271Z,100762.94
2022-10-11T04:51:55.948Z,100764.67
2022-10-11T04:54:26.481Z,100759.45
2022-10-11T04:56:55.179Z,100762.87
2022-10-11T04:59:27.124Z,100768.03
2022-10-11T05:01:55.963Z,100761.92
2022-10-11T05:04:27.384Z,100768.81
2022-10-11T05:06:55.988Z,100767.96
2022-10-11T05:09:26.318Z,100774.85
2022-10-11T05:11:55.176Z,100774.85
2022-10-11T05:14:26.509Z,100782.60
2022-10-11T05:16:55.298Z,100781.75
2022-10-11T05:19:24.111Z,100787.78
2022-10-11T05:21:54.523Z,100789.49
2022-10-11T05:24:23.645Z,100789.45
2022-10-11T05:26:53.855Z,100792.94
2022-10-11T05:29:22.469Z,100786.86
2022-10-11T05:31:52.142Z,100797.27
2022-10-11T05:34:20.954Z,100792.98
2022-10-11T05:36:49.721Z,100794.72
2022-10-11T05:39:18.480Z,100800.80
2022-10-11T05:41:47.188Z,100809.50
2022-10-11T05:44:15.616Z,100810.43
2022-10-11T05:46:44.432Z,100807.91
2022-10-11T05:49:13.240Z,100810.60
2022-10-11T05:51:42.144Z,100802.87
2022-10-11T05:54:10.929Z,100801.22
2022-10-11T05:56:39.648Z,100805.64
2022-10-11T05:59:08.184Z,100800.55
2022-10-11T06:01:39.512Z,100807.52
2022-10-11T06:04:09.376Z,100817.15
2022-10-11T06:06:38.334Z,100832.81
2022-10-11T06:09:06.989Z,100830.25
2022-10-11T06:11:40.839Z,100825.97
2022-10-11T06:14:10.967Z,100832.95
2022-10-11T06:16:40.470Z,100829.53
2022-10-11T06:19:09.075Z,100840.83
2022-10-11T06:21:37.846Z,100846.94
2022-10-11T06:24:08.807Z,100854.73
2022-10-11T06:26:38.702Z,100856.44
2022-10-11T06:29:07.721Z,100861.63
2022-10-11T06:31:41.094Z,100865.91
2022-10-11T06:34:09.839Z,100868.45
2022-10-11T06:36:38.494Z,100884.89
2022-10-11T06:39:07.234Z,100882.22
2022-10-11T06:41:38.602Z,100881.27
2022-10-11T06:44:09.693Z,100889.86
2022-10-11T06:46:42.420Z,100894.09
2022-10-11T06:49:11.275Z,100897.42
2022-10-11T06:51:40.112Z,100898.19
2022-10-11T06:54:08.764Z,100894.59
2022-10-11T06:56:37.788Z,100898.86
2022-10-11T06:59:06.600Z,100903.97
2022-10-11T07:01:41.407Z,100909.09
2022-10-11T07:04:10.327Z,100914.20
2022-10-11T07:06:40.554Z,100918.45
2022-10-11T07:09:09.832Z,100920.19
2022-10-11T07:11:41.415Z,100926.35
2022-10-11T07:14:10.628Z,100923.81
2022-10-11T07:16:40.469Z,100932.56
2022-10-11T07:19:09.964Z,100933.44
2022-10-11T07:21:38.516Z,100940.42
2022-10-11T07:24:08.092Z,100956.13
2022-10-11T07:26:39.332Z,100949.98
2022-10-11T07:29:10.655Z,100956.03
2022-10-11T07:31:42.778Z,100961.13
2022-10-11T07:34:11.531Z,100967.16
2022-10-11T07:36:40.129Z,100973.16
2022-10-11T07:39:09.245Z,100971.27
2022-10-11T07:41:43.084Z,100975.50
2022-10-11T07:44:14.281Z,100974.44
2022-10-11T07:46:42.888Z,100982.05
2022-10-11T07:49:11.582Z,100982.86
2022-10-11T07:51:40.139Z,100979.16
2022-10-11T07:54:11.059Z,100984.97
2022-10-11T07:56:39.756Z,100990.02
2022-10-11T07:59:11.346Z,100997.81
2022-10-11T08:01:40.104Z,100995.16
2022-10-11T08:04:09.745Z,100993.53
2022-10-11T08:06:38.293Z,100998.84
2022-10-11T08:09:07.357Z,101003.31
2022-10-11T08:11:39.073Z,101006.75
2022-10-11T08:14:10.862Z,101004.05
2022-10-11T08:16:40.734Z,101000.51
2022-10-11T08:19:11.143Z,101008.34
2022-10-11T08:21:39.763Z,101009.15
2022-10-11T08:24:08.869Z,101012.58
2022-10-11T08:26:38.741Z,101004.67
2022-10-11T08:29:07.551Z,101020.41
2022-10-11T08:31:39.851Z,101014.13
2022-10-11T08:34:08.386Z,101018.36
2022-10-11T08:36:37.369Z,101006.98
2022-10-11T08:39:06.672Z,101017.27
2022-10-11T08:41:41.823Z,101015.38
2022-10-11T08:44:27.862Z,101015.16
2022-10-11T08:47:04.283Z,101018.55
2022-10-11T08:49:34.748Z,101016.45
2022-10-11T08:52:10.614Z,101023.63
2022-10-11T08:54:44.906Z,101023.31
2022-10-11T08:57:18.039Z,101012.36
2022-10-11T08:59:49.779Z,101015.41
2022-10-11T09:02:49.245Z,101008.30
2022-10-11T09:05:20.087Z,101015.38
2022-10-11T09:08:01.278Z,101015.89
2022-10-11T09:10:49.184Z,101031.20
2022-10-11T09:13:41.154Z,101032.08
2022-10-11T09:16:21.988Z,101030.48
2022-10-11T09:19:05.091Z,101026.46
2022-10-11T09:21:42.071Z,101036.48
2022-10-11T09:24:33.311Z,101040.46
2022-10-11T09:27:11.159Z,101046.96
2022-10-11T09:29:50.855Z,101057.58
2022-10-11T09:32:20.921Z,101051.22
2022-10-11T09:34:57.362Z,101056.98
2022-10-11T09:37:35.141Z,101058.11
2022-10-11T09:40:17.957Z,101060.63
2022-10-11T09:42:46.592Z,101056.27
2022-10-11T09:45:21.149Z,101063.08
2022-10-11T09:47:52.284Z,101062.53
2022-10-11T09:50:25.277Z,101061.11
2022-10-11T09:52:56.326Z,101064.73
2022-10-11T09:55:35.065Z,101071.88
2022-10-11T09:58:22.660Z,101071.88
2022-10-11T10:01:05.231Z,101072.94
2022-10-11T10:03:39.627Z,101069.70
2022-10-11T10:06:12.845Z,101082.09
2022-10-11T10:08:42.576Z,101076.89
2022-10-11T10:11:12.300Z,101073.91
2022-10-11T10:13:45.738Z,101084.40
2022-10-11T10:16:27.114Z,101081.77
2022-10-11T10:19:00.226Z,101075.08
2022-10-11T10:21:33.641Z,101075.55
2022-10-11T10:24:05.854Z,101078.61
2022-10-11T10:26:39.477Z,101088.59
2022-10-11T10:29:18.105Z,101091.63
2022-10-11T10:32:13.503Z,101091.27
2022-10-11T10:34:56.515Z,101089.48
2022-10-11T10:37:29.947Z,101092.48
2022-10-11T10:40:06.811Z,101082.06
2022-10-11T10:42:35.681Z,101096.86
2022-10-11T10:45:12.192Z,101107.29
2022-10-11T10:48:11.301Z,101100.36
2022-10-11T10:50:53.810Z,101098.59
2022-10-11T10:53:30.960Z,101094.84
2022-10-11T10:56:06.284Z,101099.04
2022-10-11T10:58:49.340Z,101100.48
2022-10-11T11:01:22.751Z,101108.11
2022-10-11T11:04:00.019Z,101110.05
2022-10-11T11:06:37.550Z,101110.75
2022-10-11T11:09:24.111Z,101113.11
2022-10-11T11:12:02.064Z,101113.42
2022-10-11T11:14:44.341Z,101108.70
2022-10-11T11:17:26.233Z,101115.80
2022-10-11T11:20:06.597Z,101110.12
2022-10-11T11:22:45.323Z,101118.87
2022-10-11T11:25:27.203Z,101117.73
2022-10-11T11:28:09.225Z,101114.72
2022-10-11T11:30:48.407Z,101114.72
2022-10-11T11:33:28.288Z,101124.69
2022-10-11T11:36:02.740Z,101125.67
2022-10-11T11:38:42.812Z,101113.51
2022-10-11T11:41:17.274Z,101123.66
2022-10-11T11:44:02.224Z,101122.64
2022-10-11T11:46:43.275Z,101122.47
2022-10-11T11:49:17.925Z,101122.11
2022-10-11T11:51:47.535Z,101132.37
2022-10-11T11:54:31.758Z,101132.11
2022-10-11T11:57:08.779Z,101136.04
2022-10-11T11:59:45.572Z,101140.61
2022-10-11T12:02:32.197Z,101135.11
2022-10-11T12:05:01.074Z,101144.23
2022-10-11T12:07:46.199Z,101145.72
2022-10-11T12:10:27.621Z,101149.73
2022-10-11T12:13:16.564Z,101147.47
2022-10-11T12:16:12.418Z,101155.70
2022-10-11T12:18:54.123Z,101150.64
2022-10-11T12:21:30.709Z,101148.16
2022-10-11T12:24:01.491Z,101144.73
2022-10-11T12:26:40.133Z,101151.91
2022-10-11T12:29:43.271Z,101144.21
2022-10-11T12:32:50.423Z,101144.41
2022-10-11T12:36:04.084Z,101139.42
2022-10-11T12:38:37.296Z,101147.39
2022-10-11T12:41:49.047Z,101142.84
2022-10-11T12:44:25.923Z,101147.89
2022-10-11T12:47:26.040Z,101152.16
2022-10-11T12:50:10.120Z,101157.45
2022-10-11T12:52:50.089Z,101161.86
2022-10-11T12:55:38.929Z,101161.76
2022-10-11T12:58:40.969Z,101167.81
2022-10-11T13:01:18.021Z,101165.94
2022-10-11T13:03:50.327Z,101164.12
2022-10-11T13:06:24.241Z,101165.80
2022-10-11T13:08:56.507Z,101169.23
2022-10-11T13:11:36.466Z,101172.89
2022-10-11T13:14:10.772Z,101174.02
2022-10-11T13:16:57.377Z,101177.88
2022-10-11T13:19:28.166Z,101177.32
2022-10-11T13:22:00.132Z,101175.78
2022-10-11T13:24:37.273Z,101173.23
2022-10-11T13:27:12.670Z,101167.09
2022-10-11T13:29:45.394Z,101174.89
2022-10-11T13:32:19.611Z,101172.19
2022-10-11T13:34:52.536Z,101169.45
2022-10-11T13:37:24.181Z,101171.14
2022-10-11T13:39:54.912Z,101173.56
2022-10-11T13:42:30.846Z,101170.77
2022-10-11T13:45:01.371Z,101177.70
2022-10-11T13:47:31.731Z,101177.48
2022-10-11T13:50:18.552Z,101179.08
2022-10-11T13:52:55.547Z,101186.78
2022-10-11T13:55:26.984Z,101178.76
2022-10-11T13:57:56.451Z,101180.30
2022-10-11T14:00:30.897Z,101178.52
2022-10-11T14:03:04.096Z,101186.45
2022-10-11T14:05:37.730Z,101183.03
2022-10-11T14:08:24.482Z,101187.59
2022-10-11T14:10:57.170Z,101181.70
2022-10-11T14:13:35.558Z,101195.95
2022-10-11T14:16:09.895Z,101195.30
2022-10-11T14:18:49.702Z,101199.82
2022-10-11T14:21:26.496Z,101198.20
2022-10-11T14:23:57.485Z,101201.84
2022-10-11T14:26:31.208Z,101197.52
2022-10-11T14:29:02.386Z,101202.00
2022-10-11T14:31:41.780Z,101205.55
2022-10-11T14:34:18.104Z,101200.34
2022-10-11T14:36:47.818Z,101198.60
2022-10-11T14:39:21.829Z,101210.02
2022-10-11T14:41:53.702Z,101210.02
2022-10-11T14:44:24.023Z,101205.73
2022-10-11T14:46:54.758Z,101212.80
2022-10-11T14:49:27.660Z,101208.47
2022-10-11T14:51:58.124Z,101218.11
2022-10-11T14:54:31.285Z,101212.02
2022-10-11T14:57:03.239Z,101214.64
2022-10-11T14:59:35.782Z,101218.19
2022-10-11T15:02:06.968Z,101226.95
2022-10-11T15:04:36.686Z,101218.29
2022-10-11T15:07:06.654Z,101224.52
2022-10-11T15:09:35.239Z,101226.36
2022-10-11T15:12:05.050Z,101234.36
2022-10-11T15:14:36.304Z,101226.58
2022-10-11T15:17:05.620Z,101229.29
2022-10-11T15:19:34.306Z,101233.68
2022-10-11T15:22:05.431Z,101239.01
2022-10-11T15:24:34.045Z,101238.23
2022-10-11T15:27:02.809Z,101240.08
2022-10-11T15:29:35.728Z,101241.93
2022-10-11T15:32:04.920Z,101249.86
2022-10-11T15:34:33.524Z,101246.44
2022-10-11T15:37:02.091Z,101251.72
2022-10-11T15:39:33.102Z,101254.41
2022-10-11T15:42:01.704Z,101253.56
2022-10-11T15:44:31.398Z,101256.26
2022-10-11T15:47:00.083Z,101263.31
2022-10-11T15:49:28.848Z,101260.80
2022-10-11T15:52:01.231Z,101265.22
2022-10-11T15:54:31.456Z,101269.66
2022-10-11T15:57:00.580Z,101269.70
2022-10-11T15:59:30.718Z,101275.00
2022-10-11T16:01:59.614Z,101277.67
2022-10-11T16:04:28.650Z,101277.69
2022-10-11T16:07:00.645Z,101288.20
2022-10-11T16:09:30.732Z,101288.25
2022-10-11T16:11:59.464Z,101294.37
2022-10-11T16:14:28.332Z,101292.67
2022-10-11T16:17:02.057Z,101291.84
2022-10-11T16:19:32.187Z,101297.09
2022-10-11T16:22:10.052Z,101300.61
2022-10-11T16:24:39.364Z,101304.97
2022-10-11T16:27:07.945Z,101299.76
2022-10-11T16:29:36.927Z,101310.23
2022-10-11T16:32:06.174Z,101306.74
2022-10-11T16:34:34.836Z,101311.08
2022-10-11T16:37:03.477Z,101309.34
2022-10-11T16:39:34.688Z,101314.56
2022-10-11T16:42:05.832Z,101308.47
2022-10-11T16:44:37.300Z,101313.63
2022-10-11T16:47:07.059Z,101323.19
2022-10-11T16:49:36.198Z,101319.69
2022-10-11T16:52:05.045Z,101311.82
2022-10-11T16:54:33.768Z,101321.34
2022-10-11T16:57:02.435Z,101323.92
2022-10-11T16:59:33.308Z,101315.17
2022-10-11T17:02:04.534Z,101318.59
2022-10-11T17:04:33.829Z,101323.73
2022-10-11T17:07:02.456Z,101326.29
2022-10-11T17:09:33.258Z,101329.70
2022-10-11T17:12:01.812Z,101333.96
2022-10-11T17:14:33.442Z,101333.94
2022-10-11T17:17:02.284Z,101334.73
2022-10-11T17:19:31.868Z,101333.84
2022-10-11T17:22:00.592Z,101339.83
2022-10-11T17:24:29.226Z,101336.34
2022-10-11T17:26:58.631Z,101338.87
2022-10-11T17:29:27.128Z,101337.08
2022-10-11T17:31:55.722Z,101339.65
2022-10-11T17:34:24.430Z,101338.75
2022-10-11T17:36:53.080Z,101344.77
2022-10-11T17:39:23.301Z,101344.69
2022-10-11T17:41:52.448Z,101348.06
2022-10-11T17:44:21.502Z,101346.28
2022-10-11T17:46:52.322Z,101356.63
2022-10-11T17:49:20.940Z,101344.43
2022-10-11T17:51:49.624Z,101351.29
2022-10-11T17:54:20.815Z,101353.80
2022-10-11T17:56:54.249Z,101352.89
2022-10-11T17:59:26.821Z,101354.55
2022-10-11T18:01:56.070Z,101363.19
2022-10-11T18:04:26.660Z,101352.70
2022-10-11T18:06:55.824Z,101356.09
2022-10-11T18:09:24.590Z,101350.83
2022-10-11T18:11:53.948Z,101355.97
2022-10-11T18:14:23.953Z,101361.97
2022-10-11T18:16:53.495Z,101360.16
2022-10-11T18:19:22.205Z,101365.28
2022-10-11T18:21:50.630Z,101366.07
2022-10-11T18:24:21.358Z,101361.62
2022-10-11T18:26:49.939Z,101361.50
2022-10-11T18:29:19.817Z,101366.67
2022-10-11T18:31:48.464Z,101364.86
2022-10-11T18:34:16.973Z,101371.69
2022-10-11T18:36:45.454Z,101369.01
2022-10-11T18:39:15.324Z,101372.34
2022-10-11T18:41:44.180Z,101373.09
2022-10-11T18:44:15.083Z,101379.05
2022-10-11T18:46:44.681Z,101382.37
2022-10-11T18:49:14.330Z,101384.02
2022-10-11T18:51:44.914Z,101387.34
2022-10-11T18:54:16.796Z,101382.05
2022-10-11T18:56:49.015Z,101388.84
2022-10-11T18:59:17.675Z,101385.27
2022-10-11T19:01:46.291Z,101387.78
2022-10-11T19:04:15.867Z,101390.22
2022-10-11T19:06:47.473Z,101391.78
2022-10-11T19:09:21.069Z,101397.67
2022-10-11T19:11:50.554Z,101396.72
2022-10-11T19:14:22.779Z,101395.81
2022-10-11T19:16:55.146Z,101389.63
2022-10-11T19:19:26.664Z,101396.47
2022-10-11T19:21:55.776Z,101389.39
2022-10-11T19:24:26.709Z,101391.85
2022-10-11T19:26:59.866Z,101396.08
2022-10-11T19:29:32.674Z,101396.83
2022-10-11T19:32:03.000Z,101395.00
2022-10-11T19:34:33.944Z,101403.52
2022-10-11T19:37:03.611Z,101399.96
2022-10-11T19:39:32.930Z,101403.34
2022-10-11T19:42:02.053Z,101398.11
2022-10-11T19:44:37.272Z,101399.70
2022-10-11T19:47:09.467Z,101398.77
2022-10-11T19:49:40.753Z,101408.23
2022-10-11T19:52:09.560Z,101404.78
2022-10-11T19:54:38.146Z,101405.63
2022-10-11T19:57:08.206Z,101413.37
2022-10-11T19:59:36.725Z,101412.45
2022-10-11T20:02:05.373Z,101408.08
2022-10-11T20:04:52.722Z,101413.20
2022-10-11T20:07:21.624Z,101419.12
2022-10-11T20:09:50.036Z,101415.50
2022-10-11T20:12:18.725Z,101419.63
2022-10-11T20:14:47.134Z,101416.93
2022-10-11T20:17:15.630Z,101421.16
2022-10-11T20:19:44.107Z,101421.89
2022-10-11T20:22:12.724Z,101416.63
2022-10-11T20:24:41.207Z,101425.22
2022-10-11T20:27:10.146Z,101420.94
2022-10-11T20:29:38.575Z,101424.30
2022-10-11T20:32:07.015Z,101425.17
2022-10-11T20:34:38.899Z,101431.18
2022-10-11T20:37:07.470Z,101426.78
2022-10-11T20:39:38.330Z,101424.88
2022-10-11T20:42:06.799Z,101423.96
2022-10-11T20:44:35.393Z,101426.52
2022-10-11T20:47:04.395Z,101427.38
2022-10-11T20:49:33.193Z,101425.59
2022-10-11T20:52:02.011Z,101428.98
2022-10-11T20:54:35.124Z,101429.70
2022-10-11T20:57:03.997Z,101428.75
2022-10-11T20:59:32.742Z,101433.84
2022-10-11T21:02:01.423Z,101428.60
2022-10-11T21:04:33.040Z,101427.71
2022-10-11T21:07:01.489Z,101424.14
2022-10-11T21:09:30.878Z,101434.42
2022-10-11T21:12:01.675Z,101434.30
2022-10-11T21:14:32.535Z,101437.63
2022-10-11T21:17:01.260Z,101430.67
2022-10-11T21:19:32.450Z,101434.95
2022-10-11T21:22:01.143Z,101438.30
2022-10-11T21:24:34.250Z,101432.14
2022-10-11T21:27:04.993Z,101433.86
2022-10-11T21:29:33.640Z,101431.25
2022-10-11T21:32:04.884Z,101438.94
2022-10-11T21:34:34.204Z,101435.53
2022-10-11T21:37:02.871Z,101437.19
2022-10-11T21:39:33.842Z,101440.57
2022-10-11T21:42:04.954Z,101443.95
2022-10-11T21:44:35.939Z,101445.58
2022-10-11T21:47:08.208Z,101446.44
2022-10-11T21:49:37.258Z,101443.70
2022-10-11T21:52:06.080Z,101452.21
2022-10-11T21:54:34.860Z,101450.48
2022-10-11T21:57:06.048Z,101451.35
2022-10-11T21:59:34.723Z,101449.59
2022-10-11T22:02:03.378Z,101454.73
2022-10-11T22:04:33.420Z,101457.25
2022-10-11T22:07:05.002Z,101452.91
2022-10-11T22:09:34.819Z,101446.84
2022-10-11T22:12:05.065Z,101445.92
2022-10-11T22:14:34.088Z,101457.95
2022-10-11T22:17:02.857Z,101459.63
2022-10-11T22:19:34.444Z,101452.70
2022-10-11T22:22:03.190Z,101448.41
2022-10-11T22:24:33.524Z,101447.48
2022-10-11T22:27:02.609Z,101455.09
2022-10-11T22:29:34.284Z,101460.13
2022-10-11T22:32:04.952Z,101457.51
2022-10-11T22:34:34.302Z,101458.33
2022-10-11T22:37:04.128Z,101460.81
2022-10-11T22:39:33.371Z,101466.70
2022-10-11T22:42:01.897Z,101464.81
2022-10-11T22:44:31.955Z,101469.01
2022-10-11T22:47:00.912Z,101476.69
2022-10-11T22:49:30.872Z,101467.94
2022-10-11T22:52:00.125Z,101468.73
2022-10-11T22:54:28.823Z,101468.69
2022-10-11T22:56:58.000Z,101466.94
2022-10-11T22:59:26.699Z,101464.20
2022-10-11T23:01:55.987Z,101467.66
2022-10-11T23:04:24.671Z,101469.41
2022-10-11T23:06:53.360Z,101467.76
2022-10-11T23:09:21.923Z,101473.86
2022-10-11T23:11:50.550Z,101474.68
2022-10-11T23:14:19.239Z,101469.45
2022-10-11T23:16:50.095Z,101467.76
2022-10-11T23:19:19.197Z,101475.47
2022-10-11T23:21:50.513Z,101472.78
2022-10-11T23:24:19.204Z,101479.48
2022-10-11T23:26:48.199Z,101472.48
2022-10-11T23:29:17.213Z,101471.59
2022-10-11T23:31:46.674Z,101477.58
2022-10-11T23:34:17.543Z,101477.51
2022-10-11T23:36:46.200Z,101477.40
2022-10-11T23:39:15.625Z,101472.16
2022-10-11T23:41:44.306Z,101482.45
2022-10-11T23:44:12.959Z,101484.09
2022-10-11T23:46:41.606Z,101484.09
2022-10-11T23:49:10.596Z,101479.83
2022-10-11T23:51:39.449Z,101485.74
2022-10-11T23:54:08.358Z,101487.35
2022-10-11T23:56:36.818Z,101478.67
2022-10-11T23:59:06.327Z,101482.16
